sensor_id;sensor_type;location;lat;lon;timestamp;P1;durP1;ratioP1;P2;durP2;ratioP2
16824;SDS011;8529;48.108;-1.706;2023-03-14T00:01:10;2.15;;;0.70;;
16824;SDS011;8529;48.108;-1.706;2023-03-14T00:03:38;2.97;;;0.68;;
16824;SDS011;8529;48.108;-1.706;2023-03-14T00:06:06;3.20;;;0.68;;
16824;SDS011;8529;48.108;-1.706;2023-03-14T00:08:34;1.95;;;0.70;;
16824;SDS011;8529;48.108;-1.706;2023-03-14T00:11:04;1.55;;;0.60;;
16824;SDS011;8529;48.108;-1.706;2023-03-14T00:13:32;3.55;;;0.80;;
16824;SDS011;8529;48.108;-1.706;2023-03-14T00:16:04;3.78;;;0.82;;
16824;SDS011;8529;48.108;-1.706;2023-03-14T00:18:33;4.70;;;0.60;;
16824;SDS011;8529;48.108;-1.706;2023-03-14T00:21:01;5.50;;;0.65;;
16824;SDS011;8529;48.108;-1.706;2023-03-14T00:23:29;1.30;;;0.65;;
16824;SDS011;8529;48.108;-1.706;2023-03-14T00:25:58;2.47;;;0.88;;
16824;SDS011;8529;48.108;-1.706;2023-03-14T00:28:25;2.90;;;0.65;;
16824;SDS011;8529;48.108;-1.706;2023-03-14T00:30:53;2.30;;;0.80;;
16824;SDS011;8529;48.108;-1.706;2023-03-14T00:33:21;1.40;;;0.50;;
16824;SDS011;8529;48.108;-1.706;2023-03-14T00:35:52;3.70;;;0.70;;
16824;SDS011;8529;48.108;-1.706;2023-03-14T00:38:20;2.42;;;0.63;;
16824;SDS011;8529;48.108;-1.706;2023-03-14T00:40:47;2.50;;;0.70;;
16824;SDS011;8529;48.108;-1.706;2023-03-14T00:43:14;4.38;;;1.40;;
16824;SDS011;8529;48.108;-1.706;2023-03-14T00:45:41;3.85;;;0.70;;
16824;SDS011;8529;48.108;-1.706;2023-03-14T00:48:08;2.63;;;0.70;;
16824;SDS011;8529;48.108;-1.706;2023-03-14T00:50:36;3.00;;;0.60;;
16824;SDS011;8529;48.108;-1.706;2023-03-14T00:53:03;4.32;;;0.50;;
16824;SDS011;8529;48.108;-1.706;2023-03-14T00:55:30;1.50;;;0.73;;
16824;SDS011;8529;48.108;-1.706;2023-03-14T00:57:57;2.78;;;0.65;;
16824;SDS011;8529;48.108;-1.706;2023-03-14T01:00:23;3.10;;;0.60;;
16824;SDS011;8529;48.108;-1.706;2023-03-14T01:02:50;0.45;;;0.20;;
16824;SDS011;8529;48.108;-1.706;2023-03-14T01:05:17;2.33;;;0.40;;
16824;SDS011;8529;48.108;-1.706;2023-03-14T01:07:45;2.30;;;0.35;;
16824;SDS011;8529;48.108;-1.706;2023-03-14T01:10:12;3.08;;;0.65;;
16824;SDS011;8529;48.108;-1.706;2023-03-14T01:12:39;2.83;;;0.65;;
16824;SDS011;8529;48.108;-1.706;2023-03-14T01:15:06;2.53;;;0.70;;
16824;SDS011;8529;48.108;-1.706;2023-03-14T01:17:34;3.70;;;0.90;;
16824;SDS011;8529;48.108;-1.706;2023-03-14T01:20:03;2.03;;;0.93;;
16824;SDS011;8529;48.108;-1.706;2023-03-14T01:22:31;4.68;;;1.10;;
16824;SDS011;8529;48.108;-1.706;2023-03-14T01:24:59;4.18;;;1.00;;
16824;SDS011;8529;48.108;-1.706;2023-03-14T01:27:26;7.00;;;1.35;;
16824;SDS011;8529;48.108;-1.706;2023-03-14T01:29:53;6.82;;;1.27;;
16824;SDS011;8529;48.108;-1.706;2023-03-14T01:32:20;2.88;;;1.17;;
16824;SDS011;8529;48.108;-1.706;2023-03-14T01:34:47;3.92;;;1.20;;
16824;SDS011;8529;48.108;-1.706;2023-03-14T01:37:14;5.78;;;2.00;;
16824;SDS011;8529;48.108;-1.706;2023-03-14T01:39:40;7.22;;;1.73;;
16824;SDS011;8529;48.108;-1.706;2023-03-14T01:42:09;12.07;;;1.50;;
16824;SDS011;8529;48.108;-1.706;2023-03-14T01:47:19;7.53;;;1.50;;
16824;SDS011;8529;48.108;-1.706;2023-03-14T01:49:46;5.32;;;1.52;;
16824;SDS011;8529;48.108;-1.706;2023-03-14T01:52:18;9.45;;;1.83;;
16824;SDS011;8529;48.108;-1.706;2023-03-14T01:54:49;8.88;;;1.92;;
16824;SDS011;8529;48.108;-1.706;2023-03-14T01:57:20;5.85;;;1.20;;
16824;SDS011;8529;48.108;-1.706;2023-03-14T01:59:52;8.27;;;2.28;;
16824;SDS011;8529;48.108;-1.706;2023-03-14T02:02:22;6.70;;;1.98;;
16824;SDS011;8529;48.108;-1.706;2023-03-14T02:04:52;7.60;;;1.65;;
16824;SDS011;8529;48.108;-1.706;2023-03-14T02:07:22;11.20;;;2.10;;
16824;SDS011;8529;48.108;-1.706;2023-03-14T02:09:53;5.53;;;1.33;;
16824;SDS011;8529;48.108;-1.706;2023-03-14T02:12:23;6.05;;;1.30;;
16824;SDS011;8529;48.108;-1.706;2023-03-14T02:14:50;5.82;;;1.83;;
16824;SDS011;8529;48.108;-1.706;2023-03-14T02:17:18;7.72;;;1.60;;
16824;SDS011;8529;48.108;-1.706;2023-03-14T02:19:50;6.30;;;1.60;;
16824;SDS011;8529;48.108;-1.706;2023-03-14T02:22:33;7.18;;;1.40;;
16824;SDS011;8529;48.108;-1.706;2023-03-14T02:25:04;6.13;;;1.45;;
16824;SDS011;8529;48.108;-1.706;2023-03-14T02:27:36;7.13;;;1.48;;
16824;SDS011;8529;48.108;-1.706;2023-03-14T02:30:04;4.05;;;1.20;;
16824;SDS011;8529;48.108;-1.706;2023-03-14T02:32:36;5.47;;;1.35;;
16824;SDS011;8529;48.108;-1.706;2023-03-14T02:35:06;6.97;;;1.83;;
16824;SDS011;8529;48.108;-1.706;2023-03-14T02:37:37;17.25;;;1.60;;
16824;SDS011;8529;48.108;-1.706;2023-03-14T02:40:07;5.03;;;1.58;;
16824;SDS011;8529;48.108;-1.706;2023-03-14T02:42:36;6.85;;;1.55;;
16824;SDS011;8529;48.108;-1.706;2023-03-14T02:47:57;5.70;;;1.70;;
16824;SDS011;8529;48.108;-1.706;2023-03-14T02:50:29;4.72;;;1.15;;
16824;SDS011;8529;48.108;-1.706;2023-03-14T02:52:59;6.00;;;1.40;;
16824;SDS011;8529;48.108;-1.706;2023-03-14T02:55:26;5.32;;;1.05;;
16824;SDS011;8529;48.108;-1.706;2023-03-14T02:57:55;7.03;;;1.45;;
16824;SDS011;8529;48.108;-1.706;2023-03-14T03:00:21;3.35;;;1.27;;
16824;SDS011;8529;48.108;-1.706;2023-03-14T03:02:48;7.80;;;1.30;;
16824;SDS011;8529;48.108;-1.706;2023-03-14T03:05:15;4.30;;;1.10;;
16824;SDS011;8529;48.108;-1.706;2023-03-14T03:07:42;7.85;;;1.80;;
16824;SDS011;8529;48.108;-1.706;2023-03-14T03:10:09;5.57;;;1.38;;
16824;SDS011;8529;48.108;-1.706;2023-03-14T03:12:37;4.25;;;1.30;;
16824;SDS011;8529;48.108;-1.706;2023-03-14T03:15:05;6.47;;;2.33;;
16824;SDS011;8529;48.108;-1.706;2023-03-14T03:17:33;6.93;;;1.33;;
16824;SDS011;8529;48.108;-1.706;2023-03-14T03:20:00;4.00;;;1.48;;
16824;SDS011;8529;48.108;-1.706;2023-03-14T03:22:28;8.40;;;1.90;;
16824;SDS011;8529;48.108;-1.706;2023-03-14T03:24:55;5.88;;;2.20;;
16824;SDS011;8529;48.108;-1.706;2023-03-14T03:27:22;8.38;;;1.58;;
16824;SDS011;8529;48.108;-1.706;2023-03-14T03:29:49;6.97;;;1.60;;
16824;SDS011;8529;48.108;-1.706;2023-03-14T03:32:17;7.70;;;1.98;;
16824;SDS011;8529;48.108;-1.706;2023-03-14T03:34:44;9.40;;;2.25;;
16824;SDS011;8529;48.108;-1.706;2023-03-14T03:37:11;7.13;;;1.40;;
16824;SDS011;8529;48.108;-1.706;2023-03-14T03:39:38;6.65;;;1.92;;
16824;SDS011;8529;48.108;-1.706;2023-03-14T03:42:05;8.05;;;1.88;;
16824;SDS011;8529;48.108;-1.706;2023-03-14T03:44:31;5.00;;;1.50;;
16824;SDS011;8529;48.108;-1.706;2023-03-14T03:46:58;5.50;;;2.33;;
16824;SDS011;8529;48.108;-1.706;2023-03-14T03:49:29;11.00;;;1.95;;
16824;SDS011;8529;48.108;-1.706;2023-03-14T03:51:56;8.68;;;2.30;;
16824;SDS011;8529;48.108;-1.706;2023-03-14T03:54:23;11.38;;;2.13;;
16824;SDS011;8529;48.108;-1.706;2023-03-14T03:56:50;10.35;;;2.25;;
16824;SDS011;8529;48.108;-1.706;2023-03-14T03:59:17;8.05;;;2.08;;
16824;SDS011;8529;48.108;-1.706;2023-03-14T04:01:44;10.52;;;2.10;;
16824;SDS011;8529;48.108;-1.706;2023-03-14T04:04:11;14.32;;;2.30;;
16824;SDS011;8529;48.108;-1.706;2023-03-14T04:06:39;7.82;;;2.15;;
16824;SDS011;8529;48.108;-1.706;2023-03-14T04:09:07;8.27;;;2.40;;
16824;SDS011;8529;48.108;-1.706;2023-03-14T04:11:33;8.63;;;2.17;;
16824;SDS011;8529;48.108;-1.706;2023-03-14T04:14:00;10.13;;;2.83;;
16824;SDS011;8529;48.108;-1.706;2023-03-14T04:16:27;7.70;;;1.83;;
16824;SDS011;8529;48.108;-1.706;2023-03-14T04:18:56;4.93;;;1.25;;
16824;SDS011;8529;48.108;-1.706;2023-03-14T04:21:23;9.63;;;1.95;;
16824;SDS011;8529;48.108;-1.706;2023-03-14T04:23:52;10.88;;;1.98;;
16824;SDS011;8529;48.108;-1.706;2023-03-14T04:26:18;7.78;;;2.05;;
16824;SDS011;8529;48.108;-1.706;2023-03-14T04:28:45;8.55;;;1.63;;
16824;SDS011;8529;48.108;-1.706;2023-03-14T04:31:15;9.18;;;1.77;;
16824;SDS011;8529;48.108;-1.706;2023-03-14T04:33:43;8.57;;;2.17;;
16824;SDS011;8529;48.108;-1.706;2023-03-14T04:36:10;6.15;;;1.98;;
16824;SDS011;8529;48.108;-1.706;2023-03-14T04:38:37;7.18;;;1.55;;
16824;SDS011;8529;48.108;-1.706;2023-03-14T04:41:06;6.45;;;1.90;;
16824;SDS011;8529;48.108;-1.706;2023-03-14T04:43:33;5.90;;;1.40;;
16824;SDS011;8529;48.108;-1.706;2023-03-14T04:46:00;10.20;;;1.83;;
16824;SDS011;8529;48.108;-1.706;2023-03-14T04:48:27;5.97;;;2.03;;
16824;SDS011;8529;48.108;-1.706;2023-03-14T04:50:54;7.25;;;1.40;;
16824;SDS011;8529;48.108;-1.706;2023-03-14T04:53:21;8.05;;;1.80;;
16824;SDS011;8529;48.108;-1.706;2023-03-14T04:55:48;4.95;;;1.15;;
16824;SDS011;8529;48.108;-1.706;2023-03-14T04:58:17;11.10;;;2.13;;
16824;SDS011;8529;48.108;-1.706;2023-03-14T05:00:44;7.28;;;1.80;;
16824;SDS011;8529;48.108;-1.706;2023-03-14T05:03:11;9.82;;;1.73;;
16824;SDS011;8529;48.108;-1.706;2023-03-14T05:05:38;7.40;;;1.70;;
16824;SDS011;8529;48.108;-1.706;2023-03-14T05:08:05;10.07;;;1.95;;
16824;SDS011;8529;48.108;-1.706;2023-03-14T05:10:32;9.57;;;2.58;;
16824;SDS011;8529;48.108;-1.706;2023-03-14T05:12:59;7.95;;;1.33;;
16824;SDS011;8529;48.108;-1.706;2023-03-14T05:15:27;6.78;;;1.85;;
16824;SDS011;8529;48.108;-1.706;2023-03-14T05:17:54;7.20;;;2.00;;
16824;SDS011;8529;48.108;-1.706;2023-03-14T05:20:20;12.85;;;2.22;;
16824;SDS011;8529;48.108;-1.706;2023-03-14T05:22:48;8.05;;;1.80;;
16824;SDS011;8529;48.108;-1.706;2023-03-14T05:25:14;9.30;;;1.98;;
16824;SDS011;8529;48.108;-1.706;2023-03-14T05:27:41;10.02;;;2.30;;
16824;SDS011;8529;48.108;-1.706;2023-03-14T05:30:09;11.50;;;3.22;;
16824;SDS011;8529;48.108;-1.706;2023-03-14T05:32:38;12.13;;;3.63;;
16824;SDS011;8529;48.108;-1.706;2023-03-14T05:35:05;8.68;;;2.83;;
16824;SDS011;8529;48.108;-1.706;2023-03-14T05:37:32;11.70;;;3.70;;
16824;SDS011;8529;48.108;-1.706;2023-03-14T05:39:59;13.80;;;4.95;;
16824;SDS011;8529;48.108;-1.706;2023-03-14T05:42:26;13.73;;;5.15;;
16824;SDS011;8529;48.108;-1.706;2023-03-14T05:44:53;10.73;;;2.30;;
16824;SDS011;8529;48.108;-1.706;2023-03-14T05:47:20;11.30;;;2.83;;
16824;SDS011;8529;48.108;-1.706;2023-03-14T05:49:48;14.55;;;2.50;;
16824;SDS011;8529;48.108;-1.706;2023-03-14T05:52:15;8.57;;;2.10;;
16824;SDS011;8529;48.108;-1.706;2023-03-14T05:54:42;9.35;;;1.63;;
16824;SDS011;8529;48.108;-1.706;2023-03-14T05:57:08;7.53;;;1.92;;
16824;SDS011;8529;48.108;-1.706;2023-03-14T05:59:35;10.70;;;2.67;;
16824;SDS011;8529;48.108;-1.706;2023-03-14T06:02:02;11.82;;;2.85;;
16824;SDS011;8529;48.108;-1.706;2023-03-14T06:04:29;11.63;;;2.08;;
16824;SDS011;8529;48.108;-1.706;2023-03-14T06:06:57;11.10;;;2.40;;
16824;SDS011;8529;48.108;-1.706;2023-03-14T06:09:24;16.27;;;2.53;;
16824;SDS011;8529;48.108;-1.706;2023-03-14T06:11:51;9.65;;;2.20;;
16824;SDS011;8529;48.108;-1.706;2023-03-14T06:14:18;8.05;;;1.85;;
16824;SDS011;8529;48.108;-1.706;2023-03-14T06:16:45;7.18;;;2.10;;
16824;SDS011;8529;48.108;-1.706;2023-03-14T06:19:13;10.02;;;1.92;;
16824;SDS011;8529;48.108;-1.706;2023-03-14T06:21:40;12.13;;;1.95;;
16824;SDS011;8529;48.108;-1.706;2023-03-14T06:24:08;6.75;;;1.90;;
16824;SDS011;8529;48.108;-1.706;2023-03-14T06:26:35;11.45;;;2.80;;
16824;SDS011;8529;48.108;-1.706;2023-03-14T06:29:02;7.95;;;2.35;;
16824;SDS011;8529;48.108;-1.706;2023-03-14T06:31:30;6.93;;;1.80;;
16824;SDS011;8529;48.108;-1.706;2023-03-14T06:33:57;7.75;;;1.55;;
16824;SDS011;8529;48.108;-1.706;2023-03-14T06:36:24;9.07;;;1.70;;
16824;SDS011;8529;48.108;-1.706;2023-03-14T06:38:51;8.23;;;2.70;;
16824;SDS011;8529;48.108;-1.706;2023-03-14T06:41:19;9.90;;;1.88;;
16824;SDS011;8529;48.108;-1.706;2023-03-14T06:43:48;7.88;;;1.55;;
16824;SDS011;8529;48.108;-1.706;2023-03-14T06:46:15;7.40;;;1.90;;
16824;SDS011;8529;48.108;-1.706;2023-03-14T06:48:42;9.45;;;1.98;;
16824;SDS011;8529;48.108;-1.706;2023-03-14T06:51:09;8.07;;;2.58;;
16824;SDS011;8529;48.108;-1.706;2023-03-14T06:53:36;7.57;;;1.50;;
16824;SDS011;8529;48.108;-1.706;2023-03-14T06:56:03;10.20;;;1.88;;
16824;SDS011;8529;48.108;-1.706;2023-03-14T06:58:31;9.55;;;1.73;;
16824;SDS011;8529;48.108;-1.706;2023-03-14T07:00:58;9.82;;;1.80;;
16824;SDS011;8529;48.108;-1.706;2023-03-14T07:03:25;8.35;;;2.03;;
16824;SDS011;8529;48.108;-1.706;2023-03-14T07:05:52;7.35;;;1.85;;
16824;SDS011;8529;48.108;-1.706;2023-03-14T07:08:19;9.73;;;4.50;;
16824;SDS011;8529;48.108;-1.706;2023-03-14T07:10:46;10.10;;;2.80;;
16824;SDS011;8529;48.108;-1.706;2023-03-14T07:13:13;7.15;;;1.67;;
16824;SDS011;8529;48.108;-1.706;2023-03-14T07:15:41;9.35;;;2.00;;
16824;SDS011;8529;48.108;-1.706;2023-03-14T07:18:09;11.77;;;3.03;;
16824;SDS011;8529;48.108;-1.706;2023-03-14T07:20:36;7.47;;;2.20;;
16824;SDS011;8529;48.108;-1.706;2023-03-14T07:23:02;8.93;;;2.67;;
16824;SDS011;8529;48.108;-1.706;2023-03-14T07:25:29;7.88;;;2.88;;
16824;SDS011;8529;48.108;-1.706;2023-03-14T07:27:56;7.63;;;2.30;;
16824;SDS011;8529;48.108;-1.706;2023-03-14T07:30:23;9.80;;;2.15;;
16824;SDS011;8529;48.108;-1.706;2023-03-14T07:32:51;7.70;;;2.05;;
16824;SDS011;8529;48.108;-1.706;2023-03-14T07:35:18;5.32;;;1.70;;
16824;SDS011;8529;48.108;-1.706;2023-03-14T07:37:45;7.05;;;1.70;;
16824;SDS011;8529;48.108;-1.706;2023-03-14T07:40:12;6.28;;;1.95;;
16824;SDS011;8529;48.108;-1.706;2023-03-14T07:42:40;7.55;;;1.67;;
16824;SDS011;8529;48.108;-1.706;2023-03-14T07:45:08;4.95;;;1.50;;
16824;SDS011;8529;48.108;-1.706;2023-03-14T07:47:35;9.13;;;1.92;;
16824;SDS011;8529;48.108;-1.706;2023-03-14T07:50:04;5.97;;;2.30;;
16824;SDS011;8529;48.108;-1.706;2023-03-14T07:52:31;8.07;;;1.88;;
16824;SDS011;8529;48.108;-1.706;2023-03-14T07:54:58;5.40;;;1.92;;
16824;SDS011;8529;48.108;-1.706;2023-03-14T07:57:25;7.07;;;1.77;;
16824;SDS011;8529;48.108;-1.706;2023-03-14T07:59:52;10.55;;;2.55;;
16824;SDS011;8529;48.108;-1.706;2023-03-14T08:02:19;7.70;;;2.15;;
16824;SDS011;8529;48.108;-1.706;2023-03-14T08:04:47;6.28;;;1.55;;
16824;SDS011;8529;48.108;-1.706;2023-03-14T08:07:16;7.25;;;1.75;;
16824;SDS011;8529;48.108;-1.706;2023-03-14T08:09:43;13.88;;;2.85;;
16824;SDS011;8529;48.108;-1.706;2023-03-14T08:12:10;7.70;;;1.60;;
16824;SDS011;8529;48.108;-1.706;2023-03-14T08:14:36;6.32;;;1.77;;
16824;SDS011;8529;48.108;-1.706;2023-03-14T08:17:03;8.82;;;1.60;;
16824;SDS011;8529;48.108;-1.706;2023-03-14T08:19:33;6.88;;;2.10;;
16824;SDS011;8529;48.108;-1.706;2023-03-14T08:22:00;5.90;;;1.63;;
16824;SDS011;8529;48.108;-1.706;2023-03-14T08:24:28;6.15;;;1.95;;
16824;SDS011;8529;48.108;-1.706;2023-03-14T08:26:55;8.50;;;1.58;;
16824;SDS011;8529;48.108;-1.706;2023-03-14T08:29:23;7.60;;;2.05;;
16824;SDS011;8529;48.108;-1.706;2023-03-14T08:31:49;5.60;;;1.73;;
16824;SDS011;8529;48.108;-1.706;2023-03-14T08:34:16;4.28;;;1.33;;
16824;SDS011;8529;48.108;-1.706;2023-03-14T08:36:44;10.00;;;2.78;;
16824;SDS011;8529;48.108;-1.706;2023-03-14T08:39:11;6.50;;;1.85;;
16824;SDS011;8529;48.108;-1.706;2023-03-14T08:41:39;10.40;;;1.90;;
16824;SDS011;8529;48.108;-1.706;2023-03-14T08:44:08;8.30;;;2.03;;
16824;SDS011;8529;48.108;-1.706;2023-03-14T08:46:36;9.65;;;1.50;;
16824;SDS011;8529;48.108;-1.706;2023-03-14T08:49:03;4.72;;;1.73;;
16824;SDS011;8529;48.108;-1.706;2023-03-14T08:51:30;9.75;;;1.80;;
16824;SDS011;8529;48.108;-1.706;2023-03-14T08:53:57;14.80;;;2.13;;
16824;SDS011;8529;48.108;-1.706;2023-03-14T08:56:24;11.02;;;2.03;;
16824;SDS011;8529;48.108;-1.706;2023-03-14T08:58:52;9.25;;;1.70;;
16824;SDS011;8529;48.108;-1.706;2023-03-14T09:01:19;5.20;;;1.58;;
16824;SDS011;8529;48.108;-1.706;2023-03-14T09:03:49;7.53;;;1.58;;
16824;SDS011;8529;48.108;-1.706;2023-03-14T09:06:16;6.85;;;1.70;;
16824;SDS011;8529;48.108;-1.706;2023-03-14T09:08:43;5.10;;;2.00;;
16824;SDS011;8529;48.108;-1.706;2023-03-14T09:11:10;9.82;;;2.08;;
16824;SDS011;8529;48.108;-1.706;2023-03-14T09:13:38;7.97;;;2.00;;
16824;SDS011;8529;48.108;-1.706;2023-03-14T09:16:07;10.02;;;2.47;;
16824;SDS011;8529;48.108;-1.706;2023-03-14T09:18:34;7.18;;;2.35;;
16824;SDS011;8529;48.108;-1.706;2023-03-14T09:21:01;4.50;;;1.52;;
16824;SDS011;8529;48.108;-1.706;2023-03-14T09:23:28;12.02;;;1.65;;
16824;SDS011;8529;48.108;-1.706;2023-03-14T09:25:55;11.07;;;2.17;;
16824;SDS011;8529;48.108;-1.706;2023-03-14T09:28:22;7.00;;;1.85;;
16824;SDS011;8529;48.108;-1.706;2023-03-14T09:30:49;8.75;;;1.65;;
16824;SDS011;8529;48.108;-1.706;2023-03-14T09:33:18;11.13;;;2.20;;
16824;SDS011;8529;48.108;-1.706;2023-03-14T09:35:45;4.55;;;1.10;;
16824;SDS011;8529;48.108;-1.706;2023-03-14T09:38:12;3.50;;;1.20;;
16824;SDS011;8529;48.108;-1.706;2023-03-14T09:40:40;6.72;;;1.42;;
16824;SDS011;8529;48.108;-1.706;2023-03-14T09:43:08;7.78;;;1.73;;
16824;SDS011;8529;48.108;-1.706;2023-03-14T09:45:39;6.28;;;1.60;;
16824;SDS011;8529;48.108;-1.706;2023-03-14T09:48:10;7.57;;;1.40;;
16824;SDS011;8529;48.108;-1.706;2023-03-14T09:50:42;5.60;;;1.40;;
16824;SDS011;8529;48.108;-1.706;2023-03-14T09:53:12;5.88;;;1.38;;
16824;SDS011;8529;48.108;-1.706;2023-03-14T09:55:43;7.38;;;1.67;;
16824;SDS011;8529;48.108;-1.706;2023-03-14T09:58:13;5.30;;;1.48;;
16824;SDS011;8529;48.108;-1.706;2023-03-14T10:00:42;7.43;;;1.88;;
16824;SDS011;8529;48.108;-1.706;2023-03-14T10:03:21;9.43;;;1.60;;
16824;SDS011;8529;48.108;-1.706;2023-03-14T10:05:52;6.55;;;1.58;;
16824;SDS011;8529;48.108;-1.706;2023-03-14T10:08:21;10.98;;;3.08;;
16824;SDS011;8529;48.108;-1.706;2023-03-14T10:10:47;8.07;;;2.50;;
16824;SDS011;8529;48.108;-1.706;2023-03-14T10:13:15;11.40;;;2.63;;
16824;SDS011;8529;48.108;-1.706;2023-03-14T10:15:47;9.02;;;2.50;;
16824;SDS011;8529;48.108;-1.706;2023-03-14T10:18:17;4.55;;;1.80;;
16824;SDS011;8529;48.108;-1.706;2023-03-14T10:20:44;6.43;;;1.80;;
16824;SDS011;8529;48.108;-1.706;2023-03-14T10:23:22;8.55;;;1.98;;
16824;SDS011;8529;48.108;-1.706;2023-03-14T10:26:00;4.22;;;1.27;;
16824;SDS011;8529;48.108;-1.706;2023-03-14T10:28:34;5.47;;;1.27;;
16824;SDS011;8529;48.108;-1.706;2023-03-14T10:31:06;6.78;;;1.23;;
16824;SDS011;8529;48.108;-1.706;2023-03-14T10:33:34;7.43;;;1.00;;
16824;SDS011;8529;48.108;-1.706;2023-03-14T10:36:03;7.38;;;1.48;;
16824;SDS011;8529;48.108;-1.706;2023-03-14T10:38:35;4.32;;;1.33;;
16824;SDS011;8529;48.108;-1.706;2023-03-14T10:41:13;4.13;;;1.23;;
16824;SDS011;8529;48.108;-1.706;2023-03-14T10:43:42;8.10;;;1.30;;
16824;SDS011;8529;48.108;-1.706;2023-03-14T10:46:12;9.35;;;1.73;;
16824;SDS011;8529;48.108;-1.706;2023-03-14T10:48:42;5.35;;;1.15;;
16824;SDS011;8529;48.108;-1.706;2023-03-14T10:51:11;8.45;;;1.98;;
16824;SDS011;8529;48.108;-1.706;2023-03-14T10:53:46;6.72;;;1.63;;
16824;SDS011;8529;48.108;-1.706;2023-03-14T10:56:15;10.45;;;1.98;;
16824;SDS011;8529;48.108;-1.706;2023-03-14T10:58:44;6.28;;;1.45;;
16824;SDS011;8529;48.108;-1.706;2023-03-14T11:01:15;7.55;;;1.30;;
16824;SDS011;8529;48.108;-1.706;2023-03-14T11:03:51;6.93;;;1.23;;
16824;SDS011;8529;48.108;-1.706;2023-03-14T11:06:23;7.25;;;1.35;;
16824;SDS011;8529;48.108;-1.706;2023-03-14T11:09:00;7.28;;;1.67;;
16824;SDS011;8529;48.108;-1.706;2023-03-14T11:11:31;9.95;;;1.63;;
16824;SDS011;8529;48.108;-1.706;2023-03-14T11:14:05;13.73;;;3.47;;
16824;SDS011;8529;48.108;-1.706;2023-03-14T11:16:43;6.47;;;1.42;;
16824;SDS011;8529;48.108;-1.706;2023-03-14T11:19:20;6.47;;;1.63;;
16824;SDS011;8529;48.108;-1.706;2023-03-14T11:22:04;7.63;;;1.67;;
16824;SDS011;8529;48.108;-1.706;2023-03-14T11:24:48;6.53;;;1.65;;
16824;SDS011;8529;48.108;-1.706;2023-03-14T11:27:34;12.10;;;1.70;;
16824;SDS011;8529;48.108;-1.706;2023-03-14T11:30:14;8.10;;;1.42;;
16824;SDS011;8529;48.108;-1.706;2023-03-14T11:32:49;7.80;;;1.60;;
16824;SDS011;8529;48.108;-1.706;2023-03-14T11:35:22;7.72;;;1.70;;
16824;SDS011;8529;48.108;-1.706;2023-03-14T11:37:53;4.05;;;1.40;;
16824;SDS011;8529;48.108;-1.706;2023-03-14T11:40:26;7.97;;;1.52;;
16824;SDS011;8529;48.108;-1.706;2023-03-14T11:42:59;5.43;;;1.20;;
16824;SDS011;8529;48.108;-1.706;2023-03-14T11:45:30;4.75;;;1.90;;
16824;SDS011;8529;48.108;-1.706;2023-03-14T11:48:07;7.60;;;1.73;;
16824;SDS011;8529;48.108;-1.706;2023-03-14T11:50:42;9.98;;;1.67;;
16824;SDS011;8529;48.108;-1.706;2023-03-14T11:53:13;8.70;;;1.40;;
16824;SDS011;8529;48.108;-1.706;2023-03-14T11:55:44;5.65;;;1.23;;
16824;SDS011;8529;48.108;-1.706;2023-03-14T11:58:13;4.45;;;1.40;;
16824;SDS011;8529;48.108;-1.706;2023-03-14T12:00:44;4.90;;;1.30;;
16824;SDS011;8529;48.108;-1.706;2023-03-14T12:03:14;3.33;;;1.35;;
16824;SDS011;8529;48.108;-1.706;2023-03-14T12:05:50;5.75;;;1.55;;
16824;SDS011;8529;48.108;-1.706;2023-03-14T12:08:29;4.10;;;1.10;;
16824;SDS011;8529;48.108;-1.706;2023-03-14T12:11:08;7.13;;;1.48;;
16824;SDS011;8529;48.108;-1.706;2023-03-14T12:13:45;4.22;;;1.40;;
16824;SDS011;8529;48.108;-1.706;2023-03-14T12:16:33;4.20;;;1.40;;
16824;SDS011;8529;48.108;-1.706;2023-03-14T12:22:08;5.85;;;1.58;;
16824;SDS011;8529;48.108;-1.706;2023-03-14T12:24:45;8.35;;;1.58;;
16824;SDS011;8529;48.108;-1.706;2023-03-14T12:30:16;5.00;;;1.30;;
16824;SDS011;8529;48.108;-1.706;2023-03-14T12:35:48;4.82;;;1.45;;
16824;SDS011;8529;48.108;-1.706;2023-03-14T12:38:15;3.30;;;1.15;;
16824;SDS011;8529;48.108;-1.706;2023-03-14T12:40:50;4.32;;;1.45;;
16824;SDS011;8529;48.108;-1.706;2023-03-14T12:43:26;9.52;;;2.53;;
16824;SDS011;8529;48.108;-1.706;2023-03-14T12:46:07;6.18;;;1.10;;
16824;SDS011;8529;48.108;-1.706;2023-03-14T12:48:49;6.55;;;1.75;;
16824;SDS011;8529;48.108;-1.706;2023-03-14T12:51:21;5.28;;;1.40;;
16824;SDS011;8529;48.108;-1.706;2023-03-14T12:54:05;8.93;;;1.35;;
16824;SDS011;8529;48.108;-1.706;2023-03-14T12:59:48;5.95;;;1.80;;
16824;SDS011;8529;48.108;-1.706;2023-03-14T13:02:20;7.70;;;1.40;;
16824;SDS011;8529;48.108;-1.706;2023-03-14T13:04:50;5.50;;;1.13;;
16824;SDS011;8529;48.108;-1.706;2023-03-14T13:07:30;8.48;;;1.48;;
16824;SDS011;8529;48.108;-1.706;2023-03-14T13:10:00;8.43;;;1.40;;
16824;SDS011;8529;48.108;-1.706;2023-03-14T13:12:42;6.07;;;1.50;;
16824;SDS011;8529;48.108;-1.706;2023-03-14T13:15:17;2.78;;;1.02;;
16824;SDS011;8529;48.108;-1.706;2023-03-14T13:17:59;3.65;;;1.40;;
16824;SDS011;8529;48.108;-1.706;2023-03-14T13:20:29;5.93;;;1.10;;
16824;SDS011;8529;48.108;-1.706;2023-03-14T13:22:58;4.35;;;1.33;;
16824;SDS011;8529;48.108;-1.706;2023-03-14T13:25:28;8.40;;;1.63;;
16824;SDS011;8529;48.108;-1.706;2023-03-14T13:27:56;5.85;;;1.20;;
16824;SDS011;8529;48.108;-1.706;2023-03-14T13:30:25;4.38;;;1.05;;
16824;SDS011;8529;48.108;-1.706;2023-03-14T13:32:53;3.58;;;0.90;;
16824;SDS011;8529;48.108;-1.706;2023-03-14T13:35:23;7.45;;;1.02;;
16824;SDS011;8529;48.108;-1.706;2023-03-14T13:37:53;2.88;;;1.00;;
16824;SDS011;8529;48.108;-1.706;2023-03-14T13:40:28;4.45;;;1.10;;
16824;SDS011;8529;48.108;-1.706;2023-03-14T13:43:04;6.05;;;1.70;;
16824;SDS011;8529;48.108;-1.706;2023-03-14T13:45:42;14.18;;;2.83;;
16824;SDS011;8529;48.108;-1.706;2023-03-14T13:48:11;12.45;;;2.35;;
16824;SDS011;8529;48.108;-1.706;2023-03-14T13:50:44;5.82;;;1.48;;
16824;SDS011;8529;48.108;-1.706;2023-03-14T13:53:12;7.95;;;1.83;;
16824;SDS011;8529;48.108;-1.706;2023-03-14T13:55:42;9.13;;;1.70;;
16824;SDS011;8529;48.108;-1.706;2023-03-14T13:58:11;7.80;;;1.58;;
16824;SDS011;8529;48.108;-1.706;2023-03-14T14:00:54;7.55;;;2.08;;
16824;SDS011;8529;48.108;-1.706;2023-03-14T14:03:26;5.07;;;1.50;;
16824;SDS011;8529;48.108;-1.706;2023-03-14T14:05:55;9.93;;;2.35;;
16824;SDS011;8529;48.108;-1.706;2023-03-14T14:08:23;5.97;;;1.75;;
16824;SDS011;8529;48.108;-1.706;2023-03-14T14:10:52;11.13;;;1.98;;
16824;SDS011;8529;48.108;-1.706;2023-03-14T14:13:22;8.55;;;1.98;;
16824;SDS011;8529;48.108;-1.706;2023-03-14T14:15:54;7.38;;;1.75;;
16824;SDS011;8529;48.108;-1.706;2023-03-14T14:18:23;6.22;;;1.52;;
16824;SDS011;8529;48.108;-1.706;2023-03-14T14:20:52;9.23;;;1.50;;
16824;SDS011;8529;48.108;-1.706;2023-03-14T14:23:19;12.57;;;2.00;;
16824;SDS011;8529;48.108;-1.706;2023-03-14T14:25:51;9.25;;;1.75;;
16824;SDS011;8529;48.108;-1.706;2023-03-14T14:28:21;10.25;;;1.60;;
16824;SDS011;8529;48.108;-1.706;2023-03-14T14:31:03;6.57;;;1.67;;
16824;SDS011;8529;48.108;-1.706;2023-03-14T14:33:43;3.65;;;1.02;;
16824;SDS011;8529;48.108;-1.706;2023-03-14T14:36:14;5.78;;;1.17;;
16824;SDS011;8529;48.108;-1.706;2023-03-14T14:38:50;4.80;;;1.25;;
16824;SDS011;8529;48.108;-1.706;2023-03-14T14:41:18;7.28;;;1.30;;
16824;SDS011;8529;48.108;-1.706;2023-03-14T14:43:46;5.25;;;1.88;;
16824;SDS011;8529;48.108;-1.706;2023-03-14T14:46:16;6.80;;;1.00;;
16824;SDS011;8529;48.108;-1.706;2023-03-14T14:48:45;4.78;;;1.35;;
16824;SDS011;8529;48.108;-1.706;2023-03-14T14:51:21;4.88;;;1.02;;
16824;SDS011;8529;48.108;-1.706;2023-03-14T14:53:49;6.95;;;1.60;;
16824;SDS011;8529;48.108;-1.706;2023-03-14T14:56:26;4.82;;;1.23;;
16824;SDS011;8529;48.108;-1.706;2023-03-14T14:58:56;5.20;;;1.65;;
16824;SDS011;8529;48.108;-1.706;2023-03-14T15:01:30;5.97;;;1.20;;
16824;SDS011;8529;48.108;-1.706;2023-03-14T15:04:00;3.38;;;1.05;;
16824;SDS011;8529;48.108;-1.706;2023-03-14T15:06:28;3.53;;;0.80;;
16824;SDS011;8529;48.108;-1.706;2023-03-14T15:08:56;5.13;;;1.15;;
16824;SDS011;8529;48.108;-1.706;2023-03-14T15:11:24;3.42;;;0.85;;
16824;SDS011;8529;48.108;-1.706;2023-03-14T15:13:52;5.50;;;1.13;;
16824;SDS011;8529;48.108;-1.706;2023-03-14T15:16:20;5.70;;;0.90;;